createdAt,value
2017-09-21T00:01:33.738Z,19.50
2017-09-21T00:04:02.328Z,26.90
2017-09-21T00:06:30.654Z,25.27
2017-09-21T00:08:58.936Z,24.77
2017-09-21T00:11:27.227Z,25.53
2017-09-21T00:13:55.566Z,36.80
2017-09-21T00:16:23.890Z,36.77
2017-09-21T00:18:52.940Z,38.83
2017-09-21T00:21:21.244Z,29.47
2017-09-21T00:23:49.539Z,39.03
2017-09-21T00:26:17.834Z,34.13
2017-09-21T00:28:46.167Z,40.07
2017-09-21T00:31:14.458Z,31.90
2017-09-21T00:33:42.778Z,63.30
2017-09-21T00:36:11.070Z,39.37
2017-09-21T00:38:39.355Z,35.03
2017-09-21T00:41:07.654Z,32.73
2017-09-21T00:43:35.969Z,45.00
2017-09-21T00:46:05.019Z,29.23
2017-09-21T00:48:33.335Z,28.00
2017-09-21T00:51:01.621Z,32.40
2017-09-21T00:53:29.958Z,28.27
2017-09-21T00:55:58.253Z,38.60
2017-09-21T00:58:26.650Z,38.13
2017-09-21T01:00:54.936Z,41.73
2017-09-21T01:03:23.242Z,35.27
2017-09-21T01:05:51.779Z,44.30
2017-09-21T01:08:20.066Z,38.67
2017-09-21T01:10:48.373Z,30.17
2017-09-21T01:13:17.431Z,32.97
2017-09-21T01:15:45.948Z,27.10
2017-09-21T01:18:14.244Z,25.53
2017-09-21T01:20:42.536Z,30.47
2017-09-21T01:23:10.823Z,27.17
2017-09-21T01:25:39.111Z,24.40
2017-09-21T01:28:08.218Z,23.50
2017-09-21T01:30:36.539Z,25.10
2017-09-21T01:33:04.828Z,26.83
2017-09-21T01:35:33.121Z,27.33
2017-09-21T01:38:01.406Z,30.87
2017-09-21T01:40:29.699Z,30.80
2017-09-21T01:42:58.023Z,25.27
2017-09-21T01:45:26.318Z,28.27
2017-09-21T01:47:54.626Z,31.13
2017-09-21T01:50:24.810Z,37.50
2017-09-21T01:52:53.126Z,49.73
2017-09-21T01:55:21.638Z,42.03
2017-09-21T01:57:49.930Z,34.40
2017-09-21T02:00:19.718Z,32.50
2017-09-21T02:02:48.011Z,29.53
2017-09-21T02:05:17.102Z,40.93
2017-09-21T02:07:45.380Z,41.60
2017-09-21T02:10:13.699Z,41.93
2017-09-21T02:12:41.991Z,34.73
2017-09-21T02:15:10.310Z,34.43
2017-09-21T02:17:38.624Z,33.87
2017-09-21T02:20:07.695Z,36.60
2017-09-21T02:22:36.027Z,37.33
2017-09-21T02:25:05.104Z,35.73
2017-09-21T02:27:34.911Z,42.00
2017-09-21T02:30:03.221Z,42.60
2017-09-21T02:32:31.527Z,34.00
2017-09-21T02:35:00.580Z,39.93
2017-09-21T02:37:28.902Z,35.50
2017-09-21T02:39:57.196Z,35.43
2017-09-21T02:42:25.524Z,48.40
2017-09-21T02:44:53.854Z,57.80
2017-09-21T02:47:22.144Z,51.87
2017-09-21T02:49:50.431Z,51.63
2017-09-21T02:52:18.731Z,45.80
2017-09-21T02:54:47.020Z,68.10
2017-09-21T02:57:15.347Z,59.27
2017-09-21T02:59:44.558Z,59.93
2017-09-21T03:02:12.898Z,53.07
2017-09-21T03:04:41.206Z,48.33
2017-09-21T03:07:09.598Z,38.97
2017-09-21T03:09:37.894Z,48.93
2017-09-21T03:12:06.182Z,42.13
2017-09-21T03:14:35.242Z,54.90
2017-09-21T03:17:03.531Z,38.27
2017-09-21T03:19:31.947Z,41.33
2017-09-21T03:22:00.231Z,43.70
2017-09-21T03:24:28.536Z,49.90
2017-09-21T03:26:56.827Z,40.23
2017-09-21T03:29:25.153Z,41.23
2017-09-21T03:31:53.897Z,42.17
2017-09-21T03:34:22.320Z,53.37
2017-09-21T03:36:50.635Z,50.63
2017-09-21T03:39:19.686Z,49.80
2017-09-21T03:41:48.085Z,80.63
2017-09-21T03:44:16.379Z,71.73
2017-09-21T03:46:44.715Z,51.80
2017-09-21T03:49:13.003Z,48.93
2017-09-21T03:51:41.355Z,46.50
2017-09-21T03:54:09.683Z,37.43
2017-09-21T03:56:37.978Z,45.80
2017-09-21T03:59:07.158Z,41.87
2017-09-21T04:01:36.210Z,39.00
2017-09-21T04:04:04.511Z,45.17
2017-09-21T04:06:32.812Z,41.47
2017-09-21T04:09:01.099Z,44.00
2017-09-21T04:11:29.490Z,42.47
2017-09-21T04:13:57.805Z,56.67
2017-09-21T04:16:26.091Z,47.83
2017-09-21T04:18:55.279Z,50.40
2017-09-21T04:21:23.594Z,58.20
2017-09-21T04:23:51.894Z,37.20
2017-09-21T04:26:20.971Z,36.80
2017-09-21T04:28:49.458Z,31.90
2017-09-21T04:31:17.747Z,36.20
2017-09-21T04:33:46.035Z,38.63
2017-09-21T04:36:14.334Z,38.17
2017-09-21T04:38:42.726Z,53.30
2017-09-21T04:41:12.555Z,41.03
2017-09-21T04:43:40.842Z,41.10
2017-09-21T04:46:10.043Z,49.27
2017-09-21T04:48:38.355Z,38.50
2017-09-21T04:51:07.406Z,42.07
2017-09-21T04:53:36.690Z,42.27
2017-09-21T04:56:05.760Z,33.67
2017-09-21T04:58:34.050Z,34.00
2017-09-21T05:01:02.343Z,47.97
2017-09-21T05:03:30.644Z,44.30
2017-09-21T05:05:59.731Z,34.37
2017-09-21T05:08:28.019Z,44.57
2017-09-21T05:10:57.871Z,41.03
2017-09-21T05:13:27.004Z,41.27
2017-09-21T05:15:55.303Z,37.90
2017-09-21T05:18:24.387Z,44.23
2017-09-21T05:20:53.439Z,42.80
2017-09-21T05:23:22.492Z,58.07
2017-09-21T05:25:51.617Z,37.80
2017-09-21T05:28:20.663Z,46.33
2017-09-21T05:30:48.978Z,42.33
2017-09-21T05:33:17.265Z,53.73
2017-09-21T05:35:46.350Z,47.33
2017-09-21T05:38:14.635Z,39.60
2017-09-21T05:40:42.923Z,49.83
2017-09-21T05:43:11.243Z,58.40
2017-09-21T05:45:40.480Z,55.90
2017-09-21T05:48:09.540Z,45.97
2017-09-21T05:50:37.861Z,53.17
2017-09-21T05:53:06.150Z,47.30
2017-09-21T05:55:35.210Z,51.17
2017-09-21T05:58:03.531Z,53.30
2017-09-21T06:00:31.815Z,48.60
2017-09-21T06:03:00.111Z,62.67
2017-09-21T06:05:28.422Z,73.60
2017-09-21T06:07:57.479Z,67.80
2017-09-21T06:10:26.567Z,88.67
2017-09-21T06:12:54.850Z,81.80
2017-09-21T06:15:23.136Z,96.90
2017-09-21T06:17:51.431Z,97.83
2017-09-21T06:20:20.692Z,92.07
2017-09-21T06:22:49.004Z,91.43
2017-09-21T06:25:18.082Z,115.70
2017-09-21T06:27:47.882Z,93.30
2017-09-21T06:30:16.187Z,116.70
2017-09-21T06:32:44.527Z,150.17
2017-09-21T06:35:12.883Z,128.60
2017-09-21T06:37:41.178Z,117.87
2017-09-21T06:40:11.026Z,117.47
2017-09-21T06:42:39.378Z,126.03
2017-09-21T06:45:07.684Z,136.77
2017-09-21T06:47:36.762Z,198.07
2017-09-21T06:50:05.834Z,162.17
2017-09-21T06:52:34.140Z,187.13
2017-09-21T06:55:03.935Z,156.20
2017-09-21T06:57:32.231Z,200.10
2017-09-21T07:00:00.644Z,168.30
2017-09-21T07:02:28.941Z,174.30
2017-09-21T07:04:57.231Z,153.20
2017-09-21T07:07:26.314Z,215.03
2017-09-21T07:09:55.448Z,188.60
2017-09-21T07:12:24.513Z,181.47
2017-09-21T07:14:52.809Z,178.13
2017-09-21T07:17:21.126Z,139.77
2017-09-21T07:19:49.424Z,129.73
2017-09-21T07:22:18.487Z,128.80
2017-09-21T07:24:46.867Z,150.33
2017-09-21T07:27:15.170Z,161.67
2017-09-21T07:29:43.466Z,162.87
2017-09-21T07:32:11.890Z,181.43
2017-09-21T07:34:40.956Z,143.77
2017-09-21T07:37:09.255Z,145.33
2017-09-21T07:39:37.591Z,129.87
2017-09-21T07:42:06.655Z,131.33
2017-09-21T07:44:34.984Z,148.53
2017-09-21T07:47:04.063Z,121.77
2017-09-21T07:49:32.354Z,103.43
2017-09-21T07:52:00.835Z,73.13
2017-09-21T07:54:29.178Z,62.40
2017-09-21T07:56:57.479Z,52.63
2017-09-21T07:59:25.851Z,42.80
2017-09-21T08:01:54.944Z,42.63
2017-09-21T08:04:24.016Z,50.43
2017-09-21T08:06:52.340Z,54.80
2017-09-21T08:09:21.401Z,54.00
2017-09-21T08:11:49.756Z,48.93
2017-09-21T08:14:18.054Z,28.23
2017-09-21T08:16:46.396Z,27.00
2017-09-21T08:19:14.692Z,30.97
2017-09-21T08:21:42.996Z,31.43
2017-09-21T08:24:12.059Z,25.80
2017-09-21T08:26:40.362Z,38.00
2017-09-21T08:29:08.955Z,25.03
2017-09-21T08:31:37.252Z,22.30
2017-09-21T08:34:05.549Z,16.60
2017-09-21T08:36:33.842Z,19.00
2017-09-21T08:39:02.242Z,19.17
2017-09-21T08:41:31.334Z,28.53
2017-09-21T08:43:59.632Z,22.00
2017-09-21T08:46:28.704Z,18.90
2017-09-21T08:48:56.999Z,14.93
2017-09-21T08:51:25.324Z,14.83
2017-09-21T08:53:54.383Z,15.77
2017-09-21T08:56:22.696Z,16.90
2017-09-21T08:58:51.054Z,12.27
2017-09-21T09:01:19.365Z,13.20
2017-09-21T09:03:47.670Z,10.07
2017-09-21T09:06:17.467Z,21.00
2017-09-21T09:08:45.764Z,14.27
2017-09-21T09:11:14.087Z,11.10
2017-09-21T09:13:43.159Z,10.03
2017-09-21T09:16:11.439Z,9.37
2017-09-21T09:18:39.770Z,10.33
2017-09-21T09:21:08.263Z,10.83
2017-09-21T09:23:37.315Z,8.40
2017-09-21T09:26:05.602Z,8.37
2017-09-21T09:28:33.933Z,5.90
2017-09-21T09:31:03.014Z,10.77
2017-09-21T09:33:31.407Z,5.13
2017-09-21T09:35:59.686Z,9.73
2017-09-21T09:38:27.966Z,5.43
2017-09-21T09:40:56.251Z,5.63
2017-09-21T09:43:24.556Z,9.90
2017-09-21T09:45:52.895Z,6.90
2017-09-21T09:48:22.203Z,11.17
2017-09-21T09:50:50.508Z,6.13
2017-09-21T09:53:19.555Z,9.47
2017-09-21T09:55:47.838Z,6.53
2017-09-21T09:58:16.126Z,6.40
2017-09-21T10:00:44.406Z,6.50
2017-09-21T10:03:12.691Z,5.67
2017-09-21T10:05:41.030Z,6.17
2017-09-21T10:08:10.857Z,7.70
2017-09-21T10:10:39.167Z,5.47
2017-09-21T10:13:08.288Z,5.80
2017-09-21T10:15:36.733Z,7.20
2017-09-21T10:18:05.070Z,5.87
2017-09-21T10:20:34.151Z,4.37
2017-09-21T10:23:02.679Z,5.30
2017-09-21T10:25:30.967Z,7.40
2017-09-21T10:27:59.255Z,9.97
2017-09-21T10:30:27.542Z,8.10
2017-09-21T10:32:55.831Z,6.57
2017-09-21T10:35:24.156Z,7.40
2017-09-21T10:37:52.483Z,4.83
2017-09-21T10:40:20.794Z,6.30
2017-09-21T10:42:49.876Z,5.07
2017-09-21T10:45:18.166Z,4.93
2017-09-21T10:47:46.550Z,10.40
2017-09-21T10:50:14.846Z,4.23
2017-09-21T10:52:43.161Z,5.77
2017-09-21T10:55:12.431Z,7.30
2017-09-21T10:57:40.719Z,5.07
2017-09-21T11:00:09.100Z,4.97
2017-09-21T11:02:37.501Z,7.27
2017-09-21T11:05:05.786Z,5.60
2017-09-21T11:07:34.282Z,4.63
2017-09-21T11:10:02.568Z,4.27
2017-09-21T11:12:30.855Z,8.03
2017-09-21T11:14:59.145Z,4.97
2017-09-21T11:17:27.450Z,4.00
2017-09-21T11:19:55.864Z,4.37
2017-09-21T11:22:24.953Z,7.50
2017-09-21T11:24:53.271Z,6.43
2017-09-21T11:27:21.601Z,4.03
2017-09-21T11:29:49.899Z,4.80
2017-09-21T11:32:18.187Z,4.90
2017-09-21T11:34:46.691Z,7.77
2017-09-21T11:37:15.002Z,4.30
2017-09-21T11:39:44.107Z,4.50
2017-09-21T11:42:12.387Z,7.63
2017-09-21T11:44:40.672Z,5.10
2017-09-21T11:47:09.860Z,12.13
2017-09-21T11:49:38.507Z,6.70
2017-09-21T11:52:07.832Z,7.47
2017-09-21T11:54:36.965Z,7.93
2017-09-21T11:57:06.962Z,9.17
2017-09-21T11:59:35.303Z,8.93
2017-09-21T12:02:04.399Z,6.97
2017-09-21T12:04:33.457Z,6.60
2017-09-21T12:07:02.556Z,8.77
2017-09-21T12:09:31.066Z,8.60
2017-09-21T12:12:00.160Z,8.13
2017-09-21T12:14:29.647Z,5.70
2017-09-21T12:16:57.930Z,8.70
2017-09-21T12:19:26.271Z,7.67
2017-09-21T12:21:55.329Z,7.77
2017-09-21T12:24:23.684Z,8.10
2017-09-21T12:26:52.032Z,10.10
2017-09-21T12:29:21.111Z,7.90
2017-09-21T12:31:49.563Z,6.97
2017-09-21T12:34:17.876Z,5.97
2017-09-21T12:36:46.196Z,7.07
2017-09-21T12:39:14.485Z,6.63
2017-09-21T12:41:42.840Z,11.73
2017-09-21T12:44:11.287Z,5.80
2017-09-21T12:46:39.615Z,6.80
2017-09-21T12:49:07.910Z,8.73
2017-09-21T12:51:36.201Z,7.10
2017-09-21T12:54:04.518Z,5.70
2017-09-21T20:03:31.552Z,17.13
2017-09-21T20:18:02.371Z,21.70
2017-09-21T20:20:30.710Z,17.57
2017-09-21T20:22:59.023Z,14.03
2017-09-21T20:25:28.090Z,17.93
2017-09-21T20:27:57.153Z,21.00
2017-09-21T20:30:25.449Z,21.63
2017-09-21T20:32:53.764Z,20.07
2017-09-21T20:35:22.073Z,22.77
2017-09-21T20:37:50.368Z,27.00
2017-09-21T20:40:18.655Z,19.73
2017-09-21T20:42:46.955Z,28.03
2017-09-21T20:45:15.300Z,17.27
2017-09-21T20:47:43.599Z,21.00
2017-09-21T20:50:11.934Z,20.47
2017-09-21T20:52:40.271Z,17.27
2017-09-21T20:55:09.588Z,19.00
2017-09-21T20:57:37.883Z,21.87
2017-09-21T21:00:06.167Z,22.77
2017-09-21T21:08:30.934Z,27.37
2017-09-21T21:10:59.222Z,24.20
2017-09-21T21:13:27.552Z,24.73
2017-09-21T21:15:55.871Z,22.00
2017-09-21T21:18:24.967Z,22.47
2017-09-21T21:20:54.063Z,19.70
2017-09-21T21:23:23.859Z,27.23
2017-09-21T21:28:52.035Z,26.83
2017-09-21T21:31:21.095Z,23.47
2017-09-21T21:33:49.403Z,27.23
2017-09-21T21:36:17.723Z,20.80
2017-09-21T21:44:38.787Z,21.10
2017-09-21T21:47:07.870Z,28.13
2017-09-21T21:49:36.162Z,25.13
2017-09-21T21:52:04.447Z,24.83
2017-09-21T21:54:32.737Z,26.00
2017-09-21T21:57:01.299Z,24.80
2017-09-21T21:59:30.376Z,20.07
2017-09-21T22:01:59.430Z,22.30
2017-09-21T22:04:28.496Z,29.53
2017-09-21T22:06:57.554Z,20.50
2017-09-21T22:09:25.848Z,32.00
2017-09-21T22:11:54.167Z,24.33
2017-09-21T22:14:23.223Z,32.43
2017-09-21T22:16:51.555Z,17.93
2017-09-21T22:19:20.619Z,21.47
2017-09-21T22:21:49.727Z,23.17
2017-09-21T22:24:18.015Z,29.97
2017-09-21T22:26:46.321Z,19.37
2017-09-21T22:29:14.615Z,21.97
2017-09-21T22:31:42.914Z,17.43
2017-09-21T22:34:12.745Z,18.80
2017-09-21T22:36:41.078Z,16.30
2017-09-21T22:39:09.362Z,16.17
2017-09-21T22:41:37.678Z,21.73
2017-09-21T22:44:06.745Z,25.83
2017-09-21T22:46:35.841Z,25.93
2017-09-21T22:49:04.909Z,25.60
2017-09-21T22:51:33.201Z,23.17
2017-09-21T22:54:02.392Z,24.27
2017-09-21T22:56:30.720Z,17.87
2017-09-21T22:58:59.039Z,15.60
2017-09-21T23:01:28.107Z,19.67
2017-09-21T23:03:57.215Z,17.43
2017-09-21T23:06:25.507Z,23.50
2017-09-21T23:08:53.799Z,22.80
2017-09-21T23:11:22.097Z,17.97
2017-09-21T23:13:50.428Z,33.27
2017-09-21T23:16:18.763Z,28.83
2017-09-21T23:18:47.087Z,19.70
2017-09-21T23:21:16.170Z,22.70
2017-09-21T23:23:44.464Z,28.23
2017-09-21T23:26:12.779Z,13.63
2017-09-21T23:28:41.837Z,14.67
2017-09-21T23:31:11.091Z,19.10
2017-09-21T23:33:40.167Z,16.33
2017-09-21T23:36:08.462Z,27.53
2017-09-21T23:38:36.754Z,24.23
2017-09-21T23:41:05.072Z,14.17
2017-09-21T23:43:33.356Z,13.73
2017-09-21T23:46:02.682Z,16.10
2017-09-21T23:48:30.967Z,17.23
2017-09-21T23:50:59.283Z,13.50
2017-09-21T23:53:27.577Z,12.47
2017-09-21T23:55:55.887Z,16.40
2017-09-21T23:58:24.180Z,19.70
